Time;durP1;ratioP1;P1;durP2;ratioP2;P2;SDS_P1;SDS_P2;PMS_P1;PMS_P2;Temp;Humidity;BMP_temperature;BMP_pressure;BME280_temperature;BME280_humidity;BME280_pressure;Samples;Min_cycle;Max_cycle;Signal;HPM_P1;HPM_P2
2021/07/06 00:00:31;;;;;;;16.77;14.98;;;17.50;99.90;;;;;;5008030;28;19933;-47
2021/07/06 00:03:02;;;;;;;16.67;15.10;;;17.50;99.90;;;;;;5007319;28;20065;-43
2021/07/06 00:05:35;;;;;;;15.73;14.13;;;17.50;99.90;;;;;;5007209;28;20058;-46
2021/07/06 00:08:02;;;;;;;15.52;14.13;;;17.60;99.90;;;;;;5007384;28;20056;-45
2021/07/06 00:10:29;;;;;;;15.82;14.32;;;17.50;99.90;;;;;;5006348;28;20050;-45
2021/07/06 00:13:00;;;;;;;15.85;14.20;;;17.50;99.90;;;;;;5007729;28;20069;-43
2021/07/06 00:15:34;;;;;;;15.52;13.20;;;17.50;99.90;;;;;;5010496;28;20042;-45
2021/07/06 00:18:03;;;;;;;15.75;14.10;;;17.60;99.90;;;;;;5008259;28;20066;-43
2021/07/06 00:20:30;;;;;;;14.20;12.90;;;17.50;99.90;;;;;;5007428;28;20383;-46
2021/07/06 00:23:03;;;;;;;14.05;12.73;;;17.50;99.90;;;;;;5007134;28;20065;-46
2021/07/06 00:25:30;;;;;;;14.95;13.32;;;17.50;99.90;;;;;;5006616;28;20506;-45
2021/07/06 00:27:57;;;;;;;15.13;13.73;;;17.50;99.90;;;;;;5006688;28;20049;-45
2021/07/06 00:30:29;;;;;;;14.05;12.75;;;17.50;99.90;;;;;;5007250;28;20049;-43
2021/07/06 00:32:56;;;;;;;14.10;12.90;;;17.50;99.90;;;;;;5002841;28;20405;-44
2021/07/06 00:35:26;;;;;;;14.30;13.10;;;17.40;99.90;;;;;;5012176;28;20041;-44
2021/07/06 00:37:52;;;;;;;13.00;11.77;;;17.50;99.90;;;;;;5009598;28;20100;-45
2021/07/06 00:40:24;;;;;;;14.00;12.25;;;17.50;99.90;;;;;;5010533;28;20124;-44
2021/07/06 00:42:59;;;;;;;13.63;12.18;;;17.50;99.90;;;;;;5016454;28;20042;-45
2021/07/06 00:45:30;;;;;;;13.10;11.20;;;17.50;99.90;;;;;;5010712;28;20054;-44
2021/07/06 00:48:02;;;;;;;12.90;11.60;;;17.50;99.90;;;;;;5010543;28;20662;-44
2021/07/06 00:50:30;;;;;;;12.95;11.02;;;17.50;99.90;;;;;;5011233;28;20554;-46
2021/07/06 00:52:56;;;;;;;12.30;11.07;;;17.40;99.90;;;;;;5011278;28;20072;-44
2021/07/06 00:55:23;;;;;;;11.95;10.75;;;17.40;99.90;;;;;;5010057;28;20099;-46
2021/07/06 00:57:53;;;;;;;11.05;9.75;;;17.50;99.90;;;;;;5007475;28;20054;-43
2021/07/06 01:00:24;;;;;;;11.82;10.63;;;17.40;99.90;;;;;;5010681;28;20058;-49
2021/07/06 01:02:53;;;;;;;11.55;10.43;;;17.40;99.90;;;;;;5010319;28;20077;-45
2021/07/06 01:05:23;;;;;;;11.35;10.32;;;17.40;99.90;;;;;;5009846;28;20085;-45
2021/07/06 01:07:51;;;;;;;13.70;10.65;;;17.40;99.90;;;;;;5009905;28;20050;-44
2021/07/06 01:10:26;;;;;;;12.00;10.50;;;17.40;99.90;;;;;;5009623;28;20148;-45
2021/07/06 01:12:53;;;;;;;12.07;10.98;;;17.50;99.90;;;;;;5010517;28;20046;-46
2021/07/06 01:15:25;;;;;;;12.18;10.38;;;17.40;99.90;;;;;;5010570;28;20099;-46
2021/07/06 01:18:21;;;;;;;14.23;10.90;;;17.40;99.90;;;;;;5011169;28;20049;-43
2021/07/06 01:20:52;;;;;;;12.23;11.00;;;17.30;99.90;;;;;;5009390;28;20223;-47
2021/07/06 01:23:21;;;;;;;12.82;11.32;;;17.30;99.90;;;;;;5009972;28;20053;-44
2021/07/06 01:25:52;;;;;;;12.43;11.10;;;17.30;99.90;;;;;;5009797;28;20519;-44
2021/07/06 01:28:19;;;;;;;15.85;13.25;;;17.30;99.90;;;;;;4992518;28;20507;-48
2021/07/06 01:30:46;;;;;;;12.63;11.32;;;17.30;99.90;;;;;;5010005;28;20042;-44
2021/07/06 01:33:23;;;;;;;12.15;10.93;;;17.30;99.90;;;;;;5013301;28;20046;-43
2021/07/06 01:35:52;;;;;;;14.48;12.30;;;17.40;99.90;;;;;;5009477;28;20529;-45
2021/07/06 01:38:19;;;;;;;12.35;11.05;;;17.40;99.90;;;;;;5008346;28;20050;-44
2021/07/06 01:40:49;;;;;;;13.00;11.70;;;17.40;99.90;;;;;;5010472;28;20058;-44
2021/07/06 01:43:20;;;;;;;13.57;12.27;;;17.40;99.90;;;;;;5009849;28;20100;-45
2021/07/06 01:45:46;;;;;;;13.88;11.10;;;17.30;99.90;;;;;;5010890;28;20046;-45
2021/07/06 01:48:13;;;;;;;13.10;11.52;;;17.30;99.90;;;;;;5009476;28;20046;-44
2021/07/06 01:50:44;;;;;;;12.40;11.20;;;17.40;99.90;;;;;;5009701;28;20057;-45
2021/07/06 01:53:18;;;;;;;12.57;10.85;;;17.30;99.90;;;;;;5015688;28;20125;-45
2021/07/06 01:55:47;;;;;;;12.32;11.10;;;17.30;99.90;;;;;;5010091;28;20089;-46
2021/07/06 01:58:15;;;;;;;13.40;11.27;;;17.30;99.90;;;;;;5009607;28;20141;-46
2021/07/06 02:00:48;;;;;;;12.48;11.20;;;17.30;99.90;;;;;;5009358;28;20159;-44
2021/07/06 02:03:17;;;;;;;13.05;11.80;;;17.30;99.90;;;;;;5008994;28;20115;-47
2021/07/06 02:05:55;;;;;;;14.32;11.73;;;17.30;99.90;;;;;;5008763;28;20045;-46
2021/07/06 02:08:24;;;;;;;14.55;12.10;;;17.30;99.90;;;;;;5007762;28;20050;-50
2021/07/06 02:10:58;;;;;;;11.88;10.73;;;17.30;99.90;;;;;;5008590;28;20050;-43
2021/07/06 02:13:28;;;;;;;11.88;10.60;;;17.30;99.90;;;;;;5009600;28;20394;-44
2021/07/06 02:15:59;;;;;;;11.73;10.73;;;17.30;99.90;;;;;;5008674;28;20049;-46
2021/07/06 02:18:28;;;;;;;13.25;11.80;;;17.30;99.90;;;;;;5008098;28;20080;-43
2021/07/06 02:20:59;;;;;;;13.02;11.55;;;17.30;99.90;;;;;;5009033;28;20069;-46
2021/07/06 02:23:31;;;;;;;13.10;11.23;;;17.30;99.90;;;;;;5013793;28;20560;-45
2021/07/06 02:26:00;;;;;;;12.93;11.38;;;17.30;99.90;;;;;;5008483;28;20142;-48
2021/07/06 02:28:30;;;;;;;12.60;11.40;;;17.30;99.90;;;;;;5008721;28;20427;-45
2021/07/06 02:31:03;;;;;;;12.88;11.57;;;17.30;99.90;;;;;;5008858;28;20056;-43
2021/07/06 02:33:33;;;;;;;;;;;17.30;99.90;;;;;;5013656;28;20088;-45
2021/07/06 02:36:07;;;;;;;12.88;11.10;;;17.30;99.90;;;;;;5009206;28;19925;-45
2021/07/06 02:38:39;;;;;;;12.43;11.20;;;17.30;99.90;;;;;;4990732;28;20226;-46
2021/07/06 02:41:06;;;;;;;12.68;10.90;;;17.30;99.90;;;;;;5008177;28;20502;-47
2021/07/06 02:43:33;;;;;;;12.80;10.77;;;17.30;99.90;;;;;;5008699;28;20057;-44
2021/07/06 02:46:05;;;;;;;11.73;10.52;;;17.30;99.90;;;;;;5008440;28;20406;-46
2021/07/06 02:48:35;;;;;;;12.80;9.77;;;17.40;99.90;;;;;;5008297;28;20053;-46
2021/07/06 02:51:03;;;;;;;11.70;10.60;;;17.40;99.90;;;;;;5012158;28;20553;-46
2021/07/06 02:53:37;;;;;;;11.57;10.38;;;17.40;99.90;;;;;;5006955;28;20056;-44
2021/07/06 02:56:04;;;;;;;;;;;17.40;99.90;;;;;;5008712;28;20054;-44
2021/07/06 02:58:30;;;;;;;12.95;11.65;;;17.40;99.90;;;;;;5008191;28;19921;-45
2021/07/06 03:00:59;;;;;;;12.30;11.20;;;17.40;99.90;;;;;;5013283;28;20132;-46
2021/07/06 03:03:30;;;;;;;12.98;10.52;;;17.40;99.90;;;;;;5014721;28;20100;-44
2021/07/06 03:06:02;;;;;;;12.68;10.38;;;17.40;99.90;;;;;;5008134;28;20103;-45
2021/07/06 03:08:33;;;;;;;11.88;10.48;;;17.40;99.90;;;;;;5007137;28;20080;-49
2021/07/06 03:11:03;;;;;;;13.63;9.77;;;17.40;99.90;;;;;;5007893;28;20046;-45
2021/07/06 03:13:32;;;;;;;11.35;10.20;;;17.50;99.90;;;;;;5007919;28;20053;-44
2021/07/06 03:16:04;;;;;;;12.93;9.98;;;17.50;99.90;;;;;;5007069;28;20057;-46
2021/07/06 03:18:30;;;;;;;12.13;10.30;;;17.50;99.90;;;;;;5006241;28;20052;-44
2021/07/06 03:21:02;;;;;;;11.38;10.15;;;17.50;99.90;;;;;;5008194;28;20490;-48
2021/07/06 03:23:32;;;;;;;11.82;10.73;;;17.50;99.90;;;;;;5007692;28;20084;-46
2021/07/06 03:26:01;;;;;;;11.50;9.88;;;17.40;99.90;;;;;;5006762;28;20062;-48
2021/07/06 03:28:32;;;;;;;10.93;9.82;;;17.40;99.90;;;;;;5008146;28;20057;-45
2021/07/06 03:31:01;;;;;;;11.30;9.95;;;17.50;99.90;;;;;;5009001;28;20046;-46
2021/07/06 03:33:27;;;;;;;13.00;9.77;;;17.50;99.90;;;;;;5008715;28;20104;-46
2021/07/06 03:35:56;;;;;;;15.18;9.77;;;17.50;99.90;;;;;;5008284;28;20061;-44
2021/07/06 03:38:25;;;;;;;11.20;9.70;;;17.50;99.90;;;;;;5007651;28;20387;-43
2021/07/06 03:40:51;;;;;;;10.52;9.48;;;17.50;99.90;;;;;;5007779;28;20046;-43
2021/07/06 03:43:24;;;;;;;9.55;8.55;;;17.50;99.90;;;;;;5008487;28;20140;-45
2021/07/06 03:45:50;;;;;;;9.55;8.48;;;17.50;99.90;;;;;;5008182;28;20045;-51
2021/07/06 03:48:17;;;;;;;9.00;8.10;;;17.50;99.90;;;;;;5008017;28;20058;-48
2021/07/06 03:50:46;;;;;;;8.98;8.07;;;17.50;99.90;;;;;;5006871;28;20042;-44
2021/07/06 03:53:16;;;;;;;9.15;7.75;;;17.60;99.90;;;;;;4991533;28;20061;-48
2021/07/06 03:55:45;;;;;;;8.98;7.43;;;17.50;99.90;;;;;;5007448;28;20139;-44
2021/07/06 03:58:14;;;;;;;8.90;7.85;;;17.50;99.90;;;;;;5007348;28;20657;-45
2021/07/06 04:00:43;;;;;;;10.15;7.28;;;17.50;99.90;;;;;;5007551;28;20089;-45
2021/07/06 04:03:12;;;;;;;8.43;6.65;;;17.50;99.90;;;;;;5007724;28;20140;-45
2021/07/06 04:05:41;;;;;;;8.63;7.30;;;17.50;99.90;;;;;;5010105;28;20460;-48
2021/07/06 04:08:10;;;;;;;8.40;7.00;;;17.40;99.90;;;;;;5004979;28;20045;-43
2021/07/06 04:10:42;;;;;;;6.85;6.07;;;17.40;99.90;;;;;;5010400;28;20081;-46
2021/07/06 04:13:11;;;;;;;9.07;6.10;;;17.40;99.90;;;;;;5011264;28;20396;-49
2021/07/06 04:15:40;;;;;;;8.10;6.38;;;17.50;99.90;;;;;;5011120;28;20058;-45
2021/07/06 04:18:09;;;;;;;8.73;6.03;;;17.50;99.90;;;;;;5011289;28;20054;-45
2021/07/06 04:20:37;;;;;;;7.97;5.97;;;17.50;99.90;;;;;;5010375;28;20065;-43
2021/07/06 04:23:10;;;;;;;7.07;6.20;;;17.60;99.90;;;;;;5015503;28;20049;-48
2021/07/06 04:25:37;;;;;;;7.90;5.97;;;17.70;99.90;;;;;;4993090;28;20050;-45
2021/07/06 04:28:03;;;;;;;7.15;5.45;;;17.70;99.90;;;;;;5011452;28;20046;-45
2021/07/06 04:30:38;;;;;;;6.80;5.28;;;17.70;99.90;;;;;;5009399;28;20491;-49
2021/07/06 04:33:05;;;;;;;7.60;5.32;;;17.80;99.90;;;;;;4992879;28;20403;-45
2021/07/06 04:35:46;;;;;;;7.15;5.40;;;17.80;99.90;;;;;;5010553;28;20053;-48
2021/07/06 04:38:18;;;;;;;5.78;4.75;;;17.90;99.90;;;;;;5009923;28;20521;-44
2021/07/06 04:40:44;;;;;;;;;;;17.90;99.90;;;;;;5011205;28;20049;-50
2021/07/06 04:43:21;;;;;;;6.13;4.38;;;17.90;99.90;;;;;;5011159;28;19921;-44
2021/07/06 04:45:47;;;;;;;;;;;17.90;99.90;;;;;;5005925;28;20050;-44
2021/07/06 04:48:13;;;;;;;5.53;4.10;;;17.90;99.90;;;;;;4991101;28;20040;-46
2021/07/06 04:50:40;;;;;;;10.35;4.15;;;18.00;99.90;;;;;;4973484;28;20054;-45
2021/07/06 04:53:07;;;;;;;5.57;3.92;;;18.00;99.90;;;;;;4998310;28;20088;-47
2021/07/06 04:55:37;;;;;;;6.95;3.90;;;18.00;99.90;;;;;;4990959;28;20725;-47
2021/07/06 04:58:04;;;;;;;4.68;3.40;;;18.10;99.90;;;;;;5000312;28;20050;-46
2021/07/06 05:00:32;;;;;;;4.25;2.92;;;18.10;99.90;;;;;;5012423;28;20038;-45
2021/07/06 05:02:59;;;;;;;6.07;3.65;;;18.10;99.90;;;;;;5000373;28;20068;-47
2021/07/06 05:05:31;;;;;;;6.55;4.70;;;18.10;99.90;;;;;;5009649;28;20057;-46
2021/07/06 05:07:59;;;;;;;3.85;2.90;;;18.20;99.90;;;;;;5010665;28;20058;-47
2021/07/06 05:10:27;;;;;;;4.13;2.33;;;18.20;99.90;;;;;;4992579;28;20143;-45
2021/07/06 05:13:00;;;;;;;3.50;2.00;;;18.40;99.90;;;;;;5010443;28;20069;-46
2021/07/06 05:15:57;;;;;;;5.18;2.15;;;18.70;99.90;;;;;;5010992;28;20050;-44
2021/07/06 05:18:29;;;;;;;4.45;2.42;;;19.10;99.90;;;;;;5010445;28;20046;-44
2021/07/06 05:21:00;;;;;;;3.03;1.80;;;19.60;99.90;;;;;;5010542;28;20054;-46
2021/07/06 05:23:30;;;;;;;4.40;1.83;;;19.80;99.90;;;;;;5011505;28;20054;-48
2021/07/06 05:26:00;;;;;;;4.43;2.00;;;20.00;99.90;;;;;;5010061;28;20061;-48
2021/07/06 05:28:29;;;;;;;3.92;2.22;;;19.90;99.90;;;;;;5012289;28;20537;-45
2021/07/06 05:30:56;;;;;;;3.72;1.80;;;19.80;99.90;;;;;;5010119;28;20057;-50
2021/07/06 05:33:25;;;;;;;4.53;1.90;;;19.90;99.90;;;;;;5009960;28;20054;-50
2021/07/06 05:35:54;;;;;;;3.42;1.80;;;20.00;99.90;;;;;;5010043;28;20061;-45
2021/07/06 05:38:26;;;;;;;;;;;19.80;99.90;;;;;;5010493;28;20074;-49
2021/07/06 05:40:57;;;;;;;2.72;1.70;;;19.70;99.90;;;;;;5009255;28;19929;-47
2021/07/06 05:43:23;;;;;;;3.47;2.10;;;19.70;99.90;;;;;;5009285;28;20054;-47
2021/07/06 05:45:56;;;;;;;4.32;2.17;;;19.60;99.90;;;;;;5009472;28;20108;-46
2021/07/06 05:48:23;;;;;;;2.78;2.20;;;19.50;99.90;;;;;;5009947;28;20469;-48
2021/07/06 05:50:52;;;;;;;2.92;2.10;;;19.40;99.90;;;;;;5008552;28;20479;-45
2021/07/06 05:53:21;;;;;;;3.95;3.13;;;19.30;99.90;;;;;;5009335;28;20057;-47
2021/07/06 05:55:50;;;;;;;6.95;2.58;;;19.20;99.90;;;;;;5009612;28;20145;-45
2021/07/06 05:58:18;;;;;;;5.70;2.17;;;19.10;99.90;;;;;;5007040;28;20048;-48
2021/07/06 06:00:47;;;;;;;9.93;3.45;;;19.00;99.90;;;;;;5013420;28;20164;-43
2021/07/06 06:03:13;;;;;;;7.03;3.10;;;18.80;99.90;;;;;;5009091;28;20050;-46
2021/07/06 06:05:41;;;;;;;5.72;2.60;;;18.60;99.90;;;;;;5009644;28;20061;-44
2021/07/06 06:08:08;;;;;;;12.32;3.70;;;18.40;99.90;;;;;;5008392;28;20057;-46
2021/07/06 06:10:35;;;;;;;6.63;3.92;;;18.20;99.90;;;;;;5007829;28;20081;-44
2021/07/06 06:13:03;;;;;;;7.30;3.20;;;18.10;99.90;;;;;;5008760;28;20072;-42
2021/07/06 06:15:29;;;;;;;4.72;3.22;;;18.00;99.90;;;;;;5008163;28;20554;-44
2021/07/06 06:17:55;;;;;;;9.75;8.27;;;18.00;99.90;;;;;;5009945;28;20457;-41
2021/07/06 06:20:21;;;;;;;17.70;15.00;;;18.00;99.90;;;;;;5009861;28;20053;-43
2021/07/06 06:22:48;;;;;;;21.98;19.77;;;18.00;99.90;;;;;;5010104;28;20042;-42
2021/07/06 06:25:14;;;;;;;17.05;15.30;;;18.10;99.90;;;;;;5013504;28;20391;-42
2021/07/06 06:27:42;;;;;;;7.22;4.68;;;18.00;99.90;;;;;;5009095;28;20062;-42
2021/07/06 06:30:09;;;;;;;5.82;4.57;;;18.00;99.90;;;;;;5008646;28;20061;-42
2021/07/06 06:32:35;;;;;;;5.15;3.63;;;18.10;99.90;;;;;;5009650;28;20140;-42
2021/07/06 06:35:05;;;;;;;6.57;4.82;;;18.10;99.90;;;;;;5009257;28;20054;-41
2021/07/06 06:37:31;;;;;;;9.88;4.10;;;18.10;99.90;;;;;;5008552;28;20085;-44
2021/07/06 06:40:00;;;;;;;10.07;4.90;;;18.20;99.90;;;;;;5014744;28;20537;-43
2021/07/06 06:42:26;;;;;;;44.45;40.20;;;18.20;99.90;;;;;;5007707;28;20092;-43
2021/07/06 06:44:52;;;;;;;10.55;9.45;;;18.30;99.90;;;;;;5008839;28;20050;-42
2021/07/06 06:47:19;;;;;;;6.20;5.28;;;18.30;99.90;;;;;;4999438;28;20154;-42
2021/07/06 06:49:45;;;;;;;20.75;18.25;;;18.30;99.90;;;;;;5008250;28;20144;-42
2021/07/06 07:02:54;;;;;;;9.65;5.50;;;18.40;99.90;;;;;;6100654;22;1426152;-42
2021/07/06 07:05:29;;;;;;;23.25;20.92;;;18.50;99.90;;;;;;6137004;23;20057;-42
2021/07/06 07:07:57;;;;;;;7.30;4.45;;;18.60;99.90;;;;;;6126146;23;20398;-44
2021/07/06 07:10:25;;;;;;;14.02;12.52;;;18.70;99.90;;;;;;6135651;23;20100;-42
2021/07/06 07:12:54;;;;;;;8.68;5.82;;;18.70;99.90;;;;;;6126514;23;20022;-43
2021/07/06 07:15:27;;;;;;;6.97;3.53;;;18.80;99.90;;;;;;6126653;23;20022;-43
2021/07/06 07:18:19;;;;;;;11.70;9.25;;;18.90;99.90;;;;;;6126999;23;20021;-44
2021/07/06 07:20:48;;;;;;;11.20;8.52;;;19.00;99.90;;;;;;6126172;23;20022;-44
2021/07/06 07:23:16;;;;;;;4.97;3.00;;;19.10;99.90;;;;;;6126020;23;20022;-44
2021/07/06 07:25:45;;;;;;;6.65;3.22;;;19.10;99.90;;;;;;6126147;23;20411;-43
2021/07/06 07:28:11;;;;;;;4.55;2.85;;;19.20;99.90;;;;;;6126977;23;20444;-44
2021/07/06 07:30:38;;;;;;;5.50;3.60;;;19.20;99.90;;;;;;6125893;23;20018;-43
2021/07/06 07:33:06;;;;;;;5.57;2.65;;;19.30;99.90;;;;;;6100510;23;20039;-43
2021/07/06 07:35:33;;;;;;;5.05;3.10;;;19.30;99.90;;;;;;6125488;23;20029;-45
2021/07/06 07:37:59;;;;;;;5.18;3.72;;;19.40;99.90;;;;;;6100162;23;20096;-44
2021/07/06 07:40:28;;;;;;;5.75;2.88;;;19.50;99.90;;;;;;6137093;23;20022;-43
2021/07/06 07:42:54;;;;;;;6.60;3.38;;;19.50;99.90;;;;;;6126338;23;20026;-44
2021/07/06 07:45:20;;;;;;;5.38;3.25;;;19.50;99.90;;;;;;6126033;23;20022;-46
2021/07/06 07:47:46;;;;;;;5.75;3.47;;;19.50;99.90;;;;;;6126080;23;20018;-44
2021/07/06 07:50:13;;;;;;;36.85;33.05;;;19.50;99.90;;;;;;6125539;23;20060;-43
2021/07/06 07:52:49;;;;;;;5.55;2.85;;;19.50;99.90;;;;;;6125780;23;20041;-43
2021/07/06 07:55:15;;;;;;;7.72;4.97;;;19.60;99.90;;;;;;6125656;23;20105;-44
2021/07/06 07:57:41;;;;;;;7.75;4.45;;;19.70;99.90;;;;;;6099592;23;20141;-45
2021/07/06 08:00:08;;;;;;;12.20;8.60;;;19.70;99.90;;;;;;6126020;23;20026;-44
2021/07/06 08:02:38;;;;;;;4.25;2.92;;;19.90;99.90;;;;;;6122238;23;20026;-44
2021/07/06 08:05:05;;;;;;;8.50;7.65;;;20.00;99.90;;;;;;6119543;23;20463;-44
2021/07/06 08:07:31;;;;;;;5.50;3.22;;;20.10;99.90;;;;;;6119175;23;20022;-43
2021/07/06 08:09:57;;;;;;;7.97;5.45;;;20.20;99.90;;;;;;6119296;23;20052;-45
2021/07/06 08:12:25;;;;;;;8.80;4.95;;;20.20;99.90;;;;;;6119537;23;20081;-44
2021/07/06 08:14:51;;;;;;;6.22;5.47;;;20.10;99.90;;;;;;6119771;23;20024;-47
2021/07/06 08:17:18;;;;;;;5.47;3.80;;;20.20;99.90;;;;;;6130954;23;20022;-45
2021/07/06 08:19:45;;;;;;;21.92;17.67;;;20.10;99.90;;;;;;6130808;23;20053;-46
2021/07/06 08:22:17;;;;;;;3.90;2.40;;;20.30;99.90;;;;;;6120908;23;20069;-48
2021/07/06 08:24:44;;;;;;;5.55;3.53;;;20.40;99.90;;;;;;6120635;23;20057;-46
2021/07/06 08:27:10;;;;;;;11.82;9.73;;;20.60;99.90;;;;;;6120308;23;20045;-47
2021/07/06 08:29:39;;;;;;;8.45;5.05;;;20.70;99.90;;;;;;6130349;23;20017;-46
2021/07/06 08:32:07;;;;;;;5.38;3.45;;;20.70;99.90;;;;;;6104062;23;20368;-50
2021/07/06 08:34:37;;;;;;;8.05;4.88;;;20.70;99.90;;;;;;6120629;23;20026;-50
2021/07/06 08:37:05;;;;;;;3.90;3.28;;;20.80;99.90;;;;;;6130474;23;20550;-48
2021/07/06 08:39:34;;;;;;;5.25;2.85;;;20.90;99.90;;;;;;6131134;23;20021;-46
2021/07/06 08:42:04;;;;;;;9.55;7.57;;;21.00;99.90;;;;;;6094819;23;20022;-49
2021/07/06 08:44:31;;;;;;;5.13;2.58;;;21.10;99.90;;;;;;6121492;23;20022;-47
2021/07/06 08:46:59;;;;;;;5.97;2.60;;;21.20;99.90;;;;;;6121216;23;20344;-47
2021/07/06 08:49:26;;;;;;;4.93;2.60;;;21.30;99.90;;;;;;6129759;23;20049;-49
2021/07/06 08:51:55;;;;;;;4.20;2.10;;;21.30;99.90;;;;;;6120771;23;20026;-48
2021/07/06 08:54:21;;;;;;;6.63;2.53;;;21.40;99.90;;;;;;6119563;23;20025;-46
2021/07/06 08:56:50;;;;;;;6.85;4.40;;;21.50;99.90;;;;;;6102470;23;20018;-50
2021/07/06 08:59:17;;;;;;;4.25;2.22;;;21.50;99.90;;;;;;6119895;23;20018;-48
2021/07/06 09:01:43;;;;;;;6.75;2.85;;;21.60;99.90;;;;;;6119549;23;20026;-49
2021/07/06 09:04:12;;;;;;;14.63;8.82;;;21.70;99.90;;;;;;6120187;23;20018;-46
2021/07/06 09:06:55;;;;;;;5.88;2.10;;;21.50;99.90;;;;;;6120101;23;20018;-51
2021/07/06 09:09:24;;;;;;;10.95;6.50;;;21.60;99.90;;;;;;6120270;23;20014;-47
2021/07/06 09:12:00;;;;;;;4.80;2.20;;;21.60;99.90;;;;;;6118882;23;20025;-48
2021/07/06 09:14:30;;;;;;;6.82;3.78;;;21.50;99.90;;;;;;6125815;23;20363;-51
2021/07/06 09:17:11;;;;;;;5.25;2.30;;;21.70;99.90;;;;;;6126102;23;20392;-48
2021/07/06 09:19:40;;;;;;;9.98;7.22;;;22.00;99.90;;;;;;6117547;23;20113;-50
2021/07/06 09:22:19;;;;;;;4.47;3.35;;;22.50;99.90;;;;;;6103619;23;20048;-47
2021/07/06 09:24:47;;;;;;;4.93;2.35;;;22.80;99.90;;;;;;6120420;23;20073;-46
2021/07/06 09:27:34;;;;;;;3.45;1.13;;;22.60;99.90;;;;;;6120088;23;20022;-48
2021/07/06 09:30:24;;;;;;;5.20;4.07;;;22.60;99.90;;;;;;6094319;23;20350;-48
2021/07/06 09:32:55;;;;;;;7.03;4.20;;;22.60;99.90;;;;;;6120296;23;20118;-49
2021/07/06 09:35:30;;;;;;;4.22;2.72;;;22.70;99.90;;;;;;6129918;23;20447;-46
2021/07/06 09:38:02;;;;;;;6.65;2.63;;;22.90;99.90;;;;;;6119636;23;20517;-48
2021/07/06 09:40:34;;;;;;;5.07;3.03;;;23.20;99.90;;;;;;6093391;23;20018;-51
2021/07/06 09:43:19;;;;;;;;;;;23.60;99.90;;;;;;6120845;23;20029;-47
2021/07/06 09:45:55;;;;;;;8.27;4.40;;;23.40;99.90;;;;;;6119030;23;19925;-49
2021/07/06 09:48:22;;;;;;;2.08;1.20;;;23.90;99.90;;;;;;6120222;23;20088;-48
2021/07/06 09:50:49;;;;;;;7.10;1.90;;;24.10;99.90;;;;;;6119315;23;20022;-48
2021/07/06 09:53:26;;;;;;;6.18;3.17;;;23.70;99.90;;;;;;6119550;23;20347;-48
2021/07/06 09:55:54;;;;;;;4.25;2.38;;;23.70;99.90;;;;;;6119146;23;20021;-46
2021/07/06 09:58:20;;;;;;;4.07;1.58;;;23.10;99.90;;;;;;6119602;23;20156;-45
2021/07/06 10:00:48;;;;;;;3.78;1.38;;;22.80;99.90;;;;;;6103118;23;20076;-46
2021/07/06 10:03:15;;;;;;;5.80;3.28;;;22.50;99.90;;;;;;6119059;23;20026;-47
2021/07/06 10:05:43;;;;;;;6.22;1.58;;;22.60;99.90;;;;;;6119220;23;20018;-49
2021/07/06 10:08:11;;;;;;;4.93;1.65;;;22.70;99.90;;;;;;6129270;23;20400;-47
2021/07/06 10:10:40;;;;;;;1.15;1.05;;;22.70;99.90;;;;;;6119758;23;20070;-51
2021/07/06 10:13:12;;;;;;;1.85;1.40;;;22.70;99.90;;;;;;6119840;23;20029;-46
2021/07/06 10:15:43;;;;;;;3.63;1.73;;;22.70;99.90;;;;;;6093857;23;20025;-48
2021/07/06 10:18:12;;;;;;;3.42;1.48;;;22.80;99.90;;;;;;6129485;23;20028;-45
2021/07/06 10:20:41;;;;;;;1.63;0.98;;;22.90;99.90;;;;;;6093514;23;20478;-48
2021/07/06 10:23:08;;;;;;;2.97;1.23;;;23.00;99.90;;;;;;6119433;23;20060;-47
2021/07/06 10:25:42;;;;;;;3.85;1.67;;;23.10;99.90;;;;;;6119623;23;20029;-46
2021/07/06 10:28:19;;;;;;;4.05;1.73;;;23.30;99.90;;;;;;6118793;23;20263;-46
2021/07/06 10:30:49;;;;;;;3.63;1.23;;;23.60;96.80;;;;;;6119492;23;20018;-46
2021/07/06 10:33:28;;;;;;;2.20;1.02;;;24.00;96.80;;;;;;6093784;23;20026;-48
2021/07/06 10:35:56;;;;;;;8.70;7.68;;;24.50;98.40;;;;;;6128141;23;20104;-49
2021/07/06 10:38:32;;;;;;;7.28;5.05;;;24.80;96.50;;;;;;6119898;23;20018;-55
2021/07/06 10:41:05;;;;;;;13.25;8.65;;;25.10;91.80;;;;;;6119813;23;20026;-49
2021/07/06 10:43:43;;;;;;;6.65;3.17;;;25.60;92.30;;;;;;6103266;23;20490;-47
2021/07/06 10:46:29;;;;;;;4.43;3.22;;;25.50;88.40;;;;;;6129218;23;20076;-48
2021/07/06 10:49:01;;;;;;;3.90;2.58;;;25.60;84.90;;;;;;6118782;23;20448;-49
2021/07/06 10:51:43;;;;;;;4.05;1.23;;;25.80;86.10;;;;;;6119345;23;20022;-49
2021/07/06 10:54:38;;;;;;;6.00;1.58;;;25.50;82.70;;;;;;6118283;23;20475;-50
2021/07/06 10:57:13;;;;;;;10.27;6.65;;;25.90;89.00;;;;;;6116529;23;20018;-47
2021/07/06 10:59:39;;;;;;;5.20;3.20;;;25.20;82.10;;;;;;6119347;23;20014;-46
2021/07/06 11:02:11;;;;;;;2.63;1.77;;;24.40;85.70;;;;;;6118932;23;20029;-49
2021/07/06 11:04:46;;;;;;;3.85;2.35;;;24.00;89.50;;;;;;6118688;23;20347;-51
2021/07/06 11:07:37;;;;;;;5.82;4.03;;;23.50;90.50;;;;;;6118045;23;20157;-48
2021/07/06 11:10:08;;;;;;;2.03;1.20;;;23.10;92.30;;;;;;6118170;23;20022;-49
2021/07/06 11:12:53;;;;;;;3.33;2.08;;;22.50;93.20;;;;;;6118662;23;20049;-52
2021/07/06 11:15:27;;;;;;;4.47;1.73;;;22.50;93.50;;;;;;6102515;23;20022;-45
2021/07/06 11:18:12;;;;;;;19.55;17.33;;;22.40;93.80;;;;;;6118575;23;20438;-48
2021/07/06 11:20:43;;;;;;;21.92;19.13;;;22.20;96.30;;;;;;6093343;23;20028;-53
2021/07/06 11:23:21;;;;;;;15.40;13.68;;;22.10;97.00;;;;;;6118722;23;20101;-53
2021/07/06 11:25:50;;;;;;;5.40;2.65;;;22.20;96.50;;;;;;6118742;23;20061;-54
2021/07/06 11:28:27;;;;;;;10.80;5.93;;;22.60;96.20;;;;;;6118706;23;20100;-54
2021/07/06 11:31:04;;;;;;;7.38;3.15;;;23.20;94.30;;;;;;6092261;23;20029;-53
2021/07/06 11:33:35;;;;;;;3.47;2.15;;;23.90;94.90;;;;;;6129203;23;20028;-54
2021/07/06 11:36:06;;;;;;;3.17;1.48;;;24.50;92.30;;;;;;6118927;23;20018;-53
2021/07/06 11:38:50;;;;;;;2.40;1.52;;;25.00;84.00;;;;;;6119928;23;20739;-50
2021/07/06 11:41:23;;;;;;;3.45;1.38;;;25.20;82.80;;;;;;6130959;23;20018;-45
2021/07/06 11:43:52;;;;;;;5.45;1.23;;;25.40;81.30;;;;;;6121449;23;20049;-48
2021/07/06 11:46:22;;;;;;;5.03;1.52;;;24.80;82.20;;;;;;6120907;23;20518;-50
2021/07/06 11:48:54;;;;;;;4.80;1.60;;;24.60;79.50;;;;;;6095854;23;20320;-47
2021/07/06 11:51:26;;;;;;;2.75;1.30;;;24.60;83.90;;;;;;6131678;23;20029;-47
2021/07/06 11:54:00;;;;;;;5.85;1.63;;;24.20;83.00;;;;;;6119331;23;20018;-51
2021/07/06 11:56:27;;;;;;;4.18;1.30;;;24.90;84.50;;;;;;6131125;23;20104;-47
2021/07/06 11:58:54;;;;;;;4.78;1.23;;;25.40;83.10;;;;;;6120928;23;20029;-48
2021/07/06 12:01:21;;;;;;;2.15;1.23;;;25.60;79.40;;;;;;6129474;23;20324;-48
2021/07/06 12:03:48;;;;;;;5.28;1.67;;;26.00;80.40;;;;;;6120817;23;20041;-47
2021/07/06 12:06:22;;;;;;;7.78;6.18;;;26.40;78.20;;;;;;6120781;23;20033;-48
2021/07/06 12:08:52;;;;;;;6.68;4.28;;;26.70;76.10;;;;;;6121462;23;20021;-49
2021/07/06 12:11:26;;;;;;;9.20;2.30;;;26.50;70.80;;;;;;6121288;23;20149;-45
2021/07/06 12:13:55;;;;;;;7.88;3.10;;;26.50;69.70;;;;;;6121620;23;20026;-44
2021/07/06 12:16:27;;;;;;;4.82;1.40;;;26.20;71.60;;;;;;6121265;23;20018;-44
2021/07/06 12:18:57;;;;;;;2.95;1.10;;;26.20;72.40;;;;;;6121525;23;20018;-44
2021/07/06 12:21:31;;;;;;;3.88;1.67;;;26.00;71.00;;;;;;6120471;23;20030;-44
2021/07/06 12:24:05;;;;;;;3.13;1.23;;;26.00;68.90;;;;;;6120582;23;20014;-46
2021/07/06 12:26:37;;;;;;;4.38;1.40;;;25.90;67.50;;;;;;6120665;23;20097;-44
2021/07/06 12:29:04;;;;;;;34.90;25.60;;;26.00;69.80;;;;;;6121166;23;20040;-47
2021/07/06 12:31:37;;;;;;;14.60;10.48;;;26.00;70.60;;;;;;6130071;23;20077;-51
2021/07/06 12:34:16;;;;;;;9.68;8.68;;;25.30;67.50;;;;;;6119405;23;20018;-46
2021/07/06 12:36:58;;;;;;;7.18;3.55;;;24.60;69.80;;;;;;6103534;23;20030;-48
2021/07/06 12:39:39;;;;;;;3.75;1.50;;;24.30;73.50;;;;;;6119673;23;20073;-47
2021/07/06 12:42:14;;;;;;;3.83;2.30;;;23.80;75.10;;;;;;6130276;23;20044;-47
2021/07/06 12:44:51;;;;;;;6.15;2.22;;;23.90;73.50;;;;;;6129594;23;20355;-48
2021/07/06 12:47:32;;;;;;;3.13;1.50;;;23.80;76.70;;;;;;6120253;23;20022;-46
2021/07/06 12:50:30;;;;;;;5.10;1.48;;;23.70;77.60;;;;;;6120581;23;20029;-47
2021/07/06 12:53:07;;;;;;;5.93;1.88;;;24.80;76.40;;;;;;6120989;23;20037;-46
2021/07/06 12:55:33;;;;;;;6.32;1.60;;;24.70;74.00;;;;;;6131030;23;20077;-47
2021/07/06 12:58:02;;;;;;;6.80;2.20;;;24.10;71.10;;;;;;6129799;23;20463;-45
2021/07/06 13:00:34;;;;;;;3.97;1.10;;;23.90;75.60;;;;;;6120297;23;20018;-45
2021/07/06 13:03:19;;;;;;;10.32;2.97;;;23.40;73.30;;;;;;6095125;23;20026;-44
2021/07/06 13:06:11;;;;;;;5.50;2.10;;;23.00;73.10;;;;;;6128672;23;20375;-45
2021/07/06 13:08:40;;;;;;;;;;;23.10;73.00;;;;;;6121250;23;20721;-46
2021/07/06 13:11:17;;;;;;;8.65;1.75;;;23.10;72.00;;;;;;6130931;23;19939;-45